sensor_id;sensor_type;location;lat;lon;timestamp;temperature;humidity
19152;DHT22;9708;53.114;9.388;2023-04-25T00:00:45;8.40;99.90
19152;DHT22;9708;53.114;9.388;2023-04-25T00:03:11;8.40;99.90
19152;DHT22;9708;53.114;9.388;2023-04-25T00:05:39;8.40;99.90
19152;DHT22;9708;53.114;9.388;2023-04-25T00:08:08;8.40;99.90
19152;DHT22;9708;53.114;9.388;2023-04-25T00:10:35;8.30;99.90
19152;DHT22;9708;53.114;9.388;2023-04-25T00:13:01;8.40;99.90
19152;DHT22;9708;53.114;9.388;2023-04-25T00:15:28;8.30;99.90
19152;DHT22;9708;53.114;9.388;2023-04-25T00:17:56;8.30;99.90
19152;DHT22;9708;53.114;9.388;2023-04-25T00:20:23;8.30;99.90
19152;DHT22;9708;53.114;9.388;2023-04-25T00:22:50;8.30;99.90
19152;DHT22;9708;53.114;9.388;2023-04-25T00:25:19;8.60;99.90
19152;DHT22;9708;53.114;9.388;2023-04-25T00:27:46;8.60;99.90
19152;DHT22;9708;53.114;9.388;2023-04-25T00:30:14;8.60;99.90
19152;DHT22;9708;53.114;9.388;2023-04-25T00:32:40;8.60;99.90
19152;DHT22;9708;53.114;9.388;2023-04-25T00:35:08;8.60;99.90
19152;DHT22;9708;53.114;9.388;2023-04-25T00:37:35;8.70;99.90
19152;DHT22;9708;53.114;9.388;2023-04-25T00:40:05;8.50;99.90
19152;DHT22;9708;53.114;9.388;2023-04-25T00:42:35;8.50;99.90
19152;DHT22;9708;53.114;9.388;2023-04-25T00:45:05;8.40;99.90
19152;DHT22;9708;53.114;9.388;2023-04-25T00:47:32;8.50;99.90
19152;DHT22;9708;53.114;9.388;2023-04-25T00:49:59;8.50;99.90
19152;DHT22;9708;53.114;9.388;2023-04-25T00:52:26;8.40;99.90
19152;DHT22;9708;53.114;9.388;2023-04-25T00:54:53;8.30;99.90
19152;DHT22;9708;53.114;9.388;2023-04-25T00:57:20;8.20;99.90
19152;DHT22;9708;53.114;9.388;2023-04-25T00:59:50;8.30;99.90
19152;DHT22;9708;53.114;9.388;2023-04-25T01:02:17;8.40;99.90
19152;DHT22;9708;53.114;9.388;2023-04-25T01:04:45;8.30;99.90
19152;DHT22;9708;53.114;9.388;2023-04-25T01:07:11;8.10;99.90
19152;DHT22;9708;53.114;9.388;2023-04-25T01:09:38;8.10;99.90
19152;DHT22;9708;53.114;9.388;2023-04-25T01:12:06;8.20;99.90
19152;DHT22;9708;53.114;9.388;2023-04-25T01:14:33;8.10;99.90
19152;DHT22;9708;53.114;9.388;2023-04-25T01:17:01;8.20;99.90
19152;DHT22;9708;53.114;9.388;2023-04-25T01:19:28;8.20;99.90
19152;DHT22;9708;53.114;9.388;2023-04-25T01:21:57;8.00;99.90
19152;DHT22;9708;53.114;9.388;2023-04-25T01:24:25;7.90;99.90
19152;DHT22;9708;53.114;9.388;2023-04-25T01:26:52;8.00;99.90
19152;DHT22;9708;53.114;9.388;2023-04-25T01:29:22;8.10;99.90
19152;DHT22;9708;53.114;9.388;2023-04-25T01:31:50;7.90;99.90
19152;DHT22;9708;53.114;9.388;2023-04-25T01:34:17;7.80;99.90
19152;DHT22;9708;53.114;9.388;2023-04-25T01:36:45;7.90;99.90
19152;DHT22;9708;53.114;9.388;2023-04-25T01:39:15;7.90;99.90
19152;DHT22;9708;53.114;9.388;2023-04-25T01:41:42;8.00;99.90
19152;DHT22;9708;53.114;9.388;2023-04-25T01:44:09;7.90;99.90
19152;DHT22;9708;53.114;9.388;2023-04-25T01:46:36;7.90;99.90
19152;DHT22;9708;53.114;9.388;2023-04-25T01:49:03;8.00;99.90
19152;DHT22;9708;53.114;9.388;2023-04-25T01:51:30;7.90;99.90
19152;DHT22;9708;53.114;9.388;2023-04-25T01:53:57;7.80;99.90
19152;DHT22;9708;53.114;9.388;2023-04-25T01:56:30;7.80;99.90
19152;DHT22;9708;53.114;9.388;2023-04-25T01:58:57;7.70;99.90
19152;DHT22;9708;53.114;9.388;2023-04-25T02:01:24;7.70;99.90
19152;DHT22;9708;53.114;9.388;2023-04-25T02:03:52;7.80;99.90
19152;DHT22;9708;53.114;9.388;2023-04-25T02:06:18;7.60;99.90
19152;DHT22;9708;53.114;9.388;2023-04-25T02:08:45;7.60;99.90
19152;DHT22;9708;53.114;9.388;2023-04-25T02:11:12;7.50;99.90
19152;DHT22;9708;53.114;9.388;2023-04-25T02:13:41;7.40;99.90
19152;DHT22;9708;53.114;9.388;2023-04-25T02:16:07;7.30;99.90
19152;DHT22;9708;53.114;9.388;2023-04-25T02:18:34;7.30;99.90
19152;DHT22;9708;53.114;9.388;2023-04-25T02:21:02;7.20;99.90
19152;DHT22;9708;53.114;9.388;2023-04-25T02:23:29;7.20;99.90
19152;DHT22;9708;53.114;9.388;2023-04-25T02:25:57;7.10;99.90
19152;DHT22;9708;53.114;9.388;2023-04-25T02:28:24;6.90;99.90
19152;DHT22;9708;53.114;9.388;2023-04-25T02:30:52;6.80;99.90
19152;DHT22;9708;53.114;9.388;2023-04-25T02:33:19;6.70;99.90
19152;DHT22;9708;53.114;9.388;2023-04-25T02:35:46;6.70;99.90
19152;DHT22;9708;53.114;9.388;2023-04-25T02:38:13;6.70;99.90
19152;DHT22;9708;53.114;9.388;2023-04-25T02:40:40;6.60;99.90
19152;DHT22;9708;53.114;9.388;2023-04-25T02:43:07;6.60;99.90
19152;DHT22;9708;53.114;9.388;2023-04-25T02:45:34;6.60;99.90
19152;DHT22;9708;53.114;9.388;2023-04-25T02:48:03;6.60;99.90
19152;DHT22;9708;53.114;9.388;2023-04-25T02:50:30;6.60;99.90
19152;DHT22;9708;53.114;9.388;2023-04-25T02:52:56;6.60;99.90
19152;DHT22;9708;53.114;9.388;2023-04-25T02:55:23;6.50;99.90
19152;DHT22;9708;53.114;9.388;2023-04-25T02:57:50;6.50;99.90
19152;DHT22;9708;53.114;9.388;2023-04-25T03:00:17;6.50;99.90
19152;DHT22;9708;53.114;9.388;2023-04-25T03:02:44;6.50;99.90
19152;DHT22;9708;53.114;9.388;2023-04-25T03:05:12;6.50;99.90
19152;DHT22;9708;53.114;9.388;2023-04-25T03:07:39;6.60;99.90
19152;DHT22;9708;53.114;9.388;2023-04-25T03:10:07;6.60;99.90
19152;DHT22;9708;53.114;9.388;2023-04-25T03:12:33;6.60;99.90
19152;DHT22;9708;53.114;9.388;2023-04-25T03:15:00;6.50;99.90
19152;DHT22;9708;53.114;9.388;2023-04-25T03:17:27;6.50;99.90
19152;DHT22;9708;53.114;9.388;2023-04-25T03:19:54;6.60;99.90
19152;DHT22;9708;53.114;9.388;2023-04-25T03:22:23;6.60;99.90
19152;DHT22;9708;53.114;9.388;2023-04-25T03:24:50;6.50;99.90
19152;DHT22;9708;53.114;9.388;2023-04-25T03:27:17;6.70;99.90
19152;DHT22;9708;53.114;9.388;2023-04-25T03:29:44;6.50;99.90
19152;DHT22;9708;53.114;9.388;2023-04-25T03:32:11;6.50;99.90
19152;DHT22;9708;53.114;9.388;2023-04-25T03:34:37;6.60;99.90
19152;DHT22;9708;53.114;9.388;2023-04-25T03:37:04;6.60;99.90
19152;DHT22;9708;53.114;9.388;2023-04-25T03:39:33;6.40;99.90
19152;DHT22;9708;53.114;9.388;2023-04-25T03:42:00;6.40;99.90
19152;DHT22;9708;53.114;9.388;2023-04-25T03:44:28;6.40;99.90
19152;DHT22;9708;53.114;9.388;2023-04-25T03:46:55;6.40;99.90
19152;DHT22;9708;53.114;9.388;2023-04-25T03:49:21;6.40;99.90
19152;DHT22;9708;53.114;9.388;2023-04-25T03:51:48;6.50;99.90
19152;DHT22;9708;53.114;9.388;2023-04-25T03:54:15;6.40;99.90
19152;DHT22;9708;53.114;9.388;2023-04-25T03:56:43;6.40;99.90
19152;DHT22;9708;53.114;9.388;2023-04-25T03:59:10;6.30;99.90
19152;DHT22;9708;53.114;9.388;2023-04-25T04:01:37;6.30;99.90
19152;DHT22;9708;53.114;9.388;2023-04-25T04:04:04;6.30;99.90
19152;DHT22;9708;53.114;9.388;2023-04-25T04:06:31;6.30;99.90
19152;DHT22;9708;53.114;9.388;2023-04-25T04:08:57;6.30;99.90
19152;DHT22;9708;53.114;9.388;2023-04-25T04:11:24;6.30;99.90
19152;DHT22;9708;53.114;9.388;2023-04-25T04:13:52;6.30;99.90
19152;DHT22;9708;53.114;9.388;2023-04-25T04:16:19;6.30;99.90
19152;DHT22;9708;53.114;9.388;2023-04-25T04:18:46;6.30;99.90
19152;DHT22;9708;53.114;9.388;2023-04-25T04:21:13;6.40;99.90
19152;DHT22;9708;53.114;9.388;2023-04-25T04:23:40;6.30;99.90
19152;DHT22;9708;53.114;9.388;2023-04-25T04:26:07;6.30;99.90
19152;DHT22;9708;53.114;9.388;2023-04-25T04:28:34;6.30;99.90
19152;DHT22;9708;53.114;9.388;2023-04-25T04:31:03;6.30;99.90
19152;DHT22;9708;53.114;9.388;2023-04-25T04:33:29;6.20;99.90
19152;DHT22;9708;53.114;9.388;2023-04-25T04:35:57;6.20;99.90
19152;DHT22;9708;53.114;9.388;2023-04-25T04:38:24;6.20;99.90
19152;DHT22;9708;53.114;9.388;2023-04-25T04:40:51;6.20;99.90
19152;DHT22;9708;53.114;9.388;2023-04-25T04:43:19;6.20;99.90
19152;DHT22;9708;53.114;9.388;2023-04-25T04:45:46;6.20;99.90
19152;DHT22;9708;53.114;9.388;2023-04-25T04:48:14;6.30;99.90
19152;DHT22;9708;53.114;9.388;2023-04-25T04:50:43;6.40;99.90
19152;DHT22;9708;53.114;9.388;2023-04-25T04:53:11;6.60;99.90
19152;DHT22;9708;53.114;9.388;2023-04-25T04:55:37;6.60;99.90
19152;DHT22;9708;53.114;9.388;2023-04-25T04:58:06;6.70;99.90
19152;DHT22;9708;53.114;9.388;2023-04-25T05:00:33;6.80;99.90
19152;DHT22;9708;53.114;9.388;2023-04-25T05:03:00;6.80;99.90
19152;DHT22;9708;53.114;9.388;2023-04-25T05:05:28;6.80;99.90
19152;DHT22;9708;53.114;9.388;2023-04-25T05:07:55;6.70;99.90
19152;DHT22;9708;53.114;9.388;2023-04-25T05:10:22;6.60;99.90
19152;DHT22;9708;53.114;9.388;2023-04-25T05:12:49;6.70;99.90
19152;DHT22;9708;53.114;9.388;2023-04-25T05:15:15;6.80;99.90
19152;DHT22;9708;53.114;9.388;2023-04-25T05:17:42;6.80;99.90
19152;DHT22;9708;53.114;9.388;2023-04-25T05:20:10;6.90;99.90
19152;DHT22;9708;53.114;9.388;2023-04-25T05:22:38;6.90;99.90
19152;DHT22;9708;53.114;9.388;2023-04-25T05:25:07;6.90;99.90
19152;DHT22;9708;53.114;9.388;2023-04-25T05:27:34;6.80;99.90
19152;DHT22;9708;53.114;9.388;2023-04-25T05:30:01;6.80;99.90
19152;DHT22;9708;53.114;9.388;2023-04-25T05:32:28;6.80;99.90
19152;DHT22;9708;53.114;9.388;2023-04-25T05:34:55;6.90;99.90
19152;DHT22;9708;53.114;9.388;2023-04-25T05:37:22;6.80;99.90
19152;DHT22;9708;53.114;9.388;2023-04-25T05:39:50;6.70;99.90
19152;DHT22;9708;53.114;9.388;2023-04-25T05:42:17;6.90;99.90
19152;DHT22;9708;53.114;9.388;2023-04-25T05:44:44;6.90;99.90
19152;DHT22;9708;53.114;9.388;2023-04-25T05:47:11;7.10;99.90
19152;DHT22;9708;53.114;9.388;2023-04-25T05:49:38;7.10;99.90
19152;DHT22;9708;53.114;9.388;2023-04-25T05:52:05;7.20;99.90
19152;DHT22;9708;53.114;9.388;2023-04-25T05:54:31;7.40;99.90
19152;DHT22;9708;53.114;9.388;2023-04-25T05:57:00;7.40;99.90
19152;DHT22;9708;53.114;9.388;2023-04-25T05:59:28;7.30;99.90
19152;DHT22;9708;53.114;9.388;2023-04-25T06:01:55;7.10;99.90
19152;DHT22;9708;53.114;9.388;2023-04-25T06:04:21;7.10;99.90
19152;DHT22;9708;53.114;9.388;2023-04-25T06:06:49;7.20;99.90
19152;DHT22;9708;53.114;9.388;2023-04-25T06:09:15;7.20;99.90
19152;DHT22;9708;53.114;9.388;2023-04-25T06:11:42;7.20;99.90
19152;DHT22;9708;53.114;9.388;2023-04-25T06:14:10;7.20;99.90
19152;DHT22;9708;53.114;9.388;2023-04-25T06:16:37;7.20;99.90
19152;DHT22;9708;53.114;9.388;2023-04-25T06:19:04;7.10;99.90
19152;DHT22;9708;53.114;9.388;2023-04-25T06:21:31;7.20;99.90
19152;DHT22;9708;53.114;9.388;2023-04-25T06:23:58;7.20;99.90
19152;DHT22;9708;53.114;9.388;2023-04-25T06:26:24;7.40;99.90
19152;DHT22;9708;53.114;9.388;2023-04-25T06:28:51;7.40;99.90
19152;DHT22;9708;53.114;9.388;2023-04-25T06:31:19;7.40;99.90
19152;DHT22;9708;53.114;9.388;2023-04-25T06:33:46;7.60;99.90
19152;DHT22;9708;53.114;9.388;2023-04-25T06:36:13;7.60;99.90
19152;DHT22;9708;53.114;9.388;2023-04-25T06:38:40;7.50;99.90
19152;DHT22;9708;53.114;9.388;2023-04-25T06:41:07;7.70;99.90
19152;DHT22;9708;53.114;9.388;2023-04-25T06:43:34;7.90;99.90
19152;DHT22;9708;53.114;9.388;2023-04-25T06:46:01;8.10;99.90
19152;DHT22;9708;53.114;9.388;2023-04-25T06:48:29;8.30;99.90
19152;DHT22;9708;53.114;9.388;2023-04-25T06:50:56;8.40;99.90
19152;DHT22;9708;53.114;9.388;2023-04-25T06:53:23;8.40;99.90
19152;DHT22;9708;53.114;9.388;2023-04-25T06:55:50;8.50;99.90
19152;DHT22;9708;53.114;9.388;2023-04-25T06:58:17;8.80;99.90
19152;DHT22;9708;53.114;9.388;2023-04-25T07:00:44;8.70;99.90
19152;DHT22;9708;53.114;9.388;2023-04-25T07:03:10;8.50;99.90
19152;DHT22;9708;53.114;9.388;2023-04-25T07:05:39;8.50;99.90
19152;DHT22;9708;53.114;9.388;2023-04-25T07:08:06;8.40;99.90
19152;DHT22;9708;53.114;9.388;2023-04-25T07:10:32;8.40;99.90
19152;DHT22;9708;53.114;9.388;2023-04-25T07:13:00;8.70;99.90
19152;DHT22;9708;53.114;9.388;2023-04-25T07:15:26;8.40;99.90
19152;DHT22;9708;53.114;9.388;2023-04-25T07:17:53;8.20;99.90
19152;DHT22;9708;53.114;9.388;2023-04-25T07:20:20;8.50;99.90
19152;DHT22;9708;53.114;9.388;2023-04-25T07:22:48;8.70;99.90
19152;DHT22;9708;53.114;9.388;2023-04-25T07:25:15;9.00;99.90
19152;DHT22;9708;53.114;9.388;2023-04-25T07:27:42;9.40;99.90
19152;DHT22;9708;53.114;9.388;2023-04-25T07:30:10;9.10;99.90
19152;DHT22;9708;53.114;9.388;2023-04-25T07:32:38;9.00;99.90
19152;DHT22;9708;53.114;9.388;2023-04-25T07:35:05;9.10;99.90
19152;DHT22;9708;53.114;9.388;2023-04-25T07:37:33;8.90;99.90
19152;DHT22;9708;53.114;9.388;2023-04-25T07:40:01;9.40;99.90
19152;DHT22;9708;53.114;9.388;2023-04-25T07:42:29;9.60;99.90
19152;DHT22;9708;53.114;9.388;2023-04-25T07:44:56;9.40;99.90
19152;DHT22;9708;53.114;9.388;2023-04-25T07:47:23;9.50;99.90
19152;DHT22;9708;53.114;9.388;2023-04-25T07:49:50;9.80;99.90
19152;DHT22;9708;53.114;9.388;2023-04-25T07:52:17;10.60;99.90
19152;DHT22;9708;53.114;9.388;2023-04-25T07:54:44;10.90;99.90
19152;DHT22;9708;53.114;9.388;2023-04-25T07:57:12;10.20;99.90
19152;DHT22;9708;53.114;9.388;2023-04-25T07:59:39;9.60;99.90
19152;DHT22;9708;53.114;9.388;2023-04-25T08:02:06;9.60;99.90
19152;DHT22;9708;53.114;9.388;2023-04-25T08:04:33;9.20;99.90
19152;DHT22;9708;53.114;9.388;2023-04-25T08:07:00;9.20;99.90
19152;DHT22;9708;53.114;9.388;2023-04-25T08:09:27;9.00;99.90
19152;DHT22;9708;53.114;9.388;2023-04-25T08:11:54;9.00;99.90
19152;DHT22;9708;53.114;9.388;2023-04-25T08:14:23;9.00;99.90
19152;DHT22;9708;53.114;9.388;2023-04-25T08:16:49;9.10;99.90
19152;DHT22;9708;53.114;9.388;2023-04-25T08:19:16;9.90;99.90
19152;DHT22;9708;53.114;9.388;2023-04-25T08:21:43;10.60;99.90
19152;DHT22;9708;53.114;9.388;2023-04-25T08:24:10;11.00;99.90
19152;DHT22;9708;53.114;9.388;2023-04-25T08:26:36;11.10;99.90
19152;DHT22;9708;53.114;9.388;2023-04-25T08:29:04;10.80;99.90
19152;DHT22;9708;53.114;9.388;2023-04-25T08:31:33;11.20;99.90
19152;DHT22;9708;53.114;9.388;2023-04-25T08:33:59;10.50;99.90
19152;DHT22;9708;53.114;9.388;2023-04-25T08:36:26;10.10;99.90
19152;DHT22;9708;53.114;9.388;2023-04-25T08:38:54;10.80;99.90
19152;DHT22;9708;53.114;9.388;2023-04-25T08:41:21;11.20;99.90
19152;DHT22;9708;53.114;9.388;2023-04-25T08:43:49;11.10;99.90
19152;DHT22;9708;53.114;9.388;2023-04-25T08:46:17;11.00;99.90
19152;DHT22;9708;53.114;9.388;2023-04-25T08:48:46;10.80;99.90
19152;DHT22;9708;53.114;9.388;2023-04-25T08:51:15;10.80;99.90
19152;DHT22;9708;53.114;9.388;2023-04-25T08:53:49;11.10;99.90
19152;DHT22;9708;53.114;9.388;2023-04-25T08:56:17;10.90;99.90
19152;DHT22;9708;53.114;9.388;2023-04-25T08:58:48;10.70;99.90
19152;DHT22;9708;53.114;9.388;2023-04-25T09:01:14;10.70;99.90
19152;DHT22;9708;53.114;9.388;2023-04-25T09:03:42;10.90;99.90
19152;DHT22;9708;53.114;9.388;2023-04-25T09:06:11;11.00;99.90
19152;DHT22;9708;53.114;9.388;2023-04-25T09:08:38;11.00;99.90
19152;DHT22;9708;53.114;9.388;2023-04-25T09:11:06;11.40;99.90
19152;DHT22;9708;53.114;9.388;2023-04-25T09:13:33;11.50;99.90
19152;DHT22;9708;53.114;9.388;2023-04-25T09:16:00;11.90;99.90
19152;DHT22;9708;53.114;9.388;2023-04-25T09:18:28;12.70;99.90
19152;DHT22;9708;53.114;9.388;2023-04-25T09:20:56;13.90;99.90
19152;DHT22;9708;53.114;9.388;2023-04-25T09:23:25;13.50;99.90
19152;DHT22;9708;53.114;9.388;2023-04-25T09:25:53;14.00;99.90
19152;DHT22;9708;53.114;9.388;2023-04-25T09:28:23;14.20;99.90
19152;DHT22;9708;53.114;9.388;2023-04-25T09:30:55;14.00;99.90
19152;DHT22;9708;53.114;9.388;2023-04-25T09:33:27;14.00;99.90
19152;DHT22;9708;53.114;9.388;2023-04-25T09:36:01;14.30;99.90
19152;DHT22;9708;53.114;9.388;2023-04-25T09:38:32;14.20;99.90
19152;DHT22;9708;53.114;9.388;2023-04-25T09:40:59;15.30;99.90
19152;DHT22;9708;53.114;9.388;2023-04-25T09:43:27;16.30;99.90
19152;DHT22;9708;53.114;9.388;2023-04-25T09:45:54;16.00;99.90
19152;DHT22;9708;53.114;9.388;2023-04-25T09:48:26;15.20;99.90
19152;DHT22;9708;53.114;9.388;2023-04-25T09:51:04;14.00;99.90
19152;DHT22;9708;53.114;9.388;2023-04-25T09:53:33;13.60;99.90
19152;DHT22;9708;53.114;9.388;2023-04-25T09:56:03;13.50;99.90
19152;DHT22;9708;53.114;9.388;2023-04-25T09:58:32;13.80;99.90
19152;DHT22;9708;53.114;9.388;2023-04-25T10:01:00;13.00;99.90
19152;DHT22;9708;53.114;9.388;2023-04-25T10:03:29;12.30;99.90
19152;DHT22;9708;53.114;9.388;2023-04-25T10:05:58;11.50;99.90
19152;DHT22;9708;53.114;9.388;2023-04-25T10:08:29;11.60;99.90
19152;DHT22;9708;53.114;9.388;2023-04-25T10:11:00;11.80;99.90
19152;DHT22;9708;53.114;9.388;2023-04-25T10:13:28;12.40;99.90
19152;DHT22;9708;53.114;9.388;2023-04-25T10:15:57;12.40;99.90
19152;DHT22;9708;53.114;9.388;2023-04-25T10:18:24;12.10;99.90
19152;DHT22;9708;53.114;9.388;2023-04-25T10:20:52;11.10;99.90
19152;DHT22;9708;53.114;9.388;2023-04-25T10:23:20;11.30;99.90
19152;DHT22;9708;53.114;9.388;2023-04-25T10:25:47;11.10;99.90
19152;DHT22;9708;53.114;9.388;2023-04-25T10:28:16;10.80;99.90
19152;DHT22;9708;53.114;9.388;2023-04-25T10:30:57;10.40;99.90
19152;DHT22;9708;53.114;9.388;2023-04-25T10:33:32;11.30;99.90
19152;DHT22;9708;53.114;9.388;2023-04-25T10:36:08;11.60;99.90
19152;DHT22;9708;53.114;9.388;2023-04-25T10:38:36;12.40;99.90
19152;DHT22;9708;53.114;9.388;2023-04-25T10:41:04;13.40;99.90
19152;DHT22;9708;53.114;9.388;2023-04-25T10:43:36;14.20;99.90
19152;DHT22;9708;53.114;9.388;2023-04-25T10:46:15;15.40;99.90
19152;DHT22;9708;53.114;9.388;2023-04-25T10:48:47;15.20;99.90
19152;DHT22;9708;53.114;9.388;2023-04-25T10:51:21;16.10;99.90
19152;DHT22;9708;53.114;9.388;2023-04-25T10:53:57;15.70;99.90
19152;DHT22;9708;53.114;9.388;2023-04-25T10:56:26;16.10;99.90
19152;DHT22;9708;53.114;9.388;2023-04-25T10:59:05;16.40;99.90
19152;DHT22;9708;53.114;9.388;2023-04-25T11:01:37;16.30;99.90
19152;DHT22;9708;53.114;9.388;2023-04-25T11:04:04;16.10;99.90
19152;DHT22;9708;53.114;9.388;2023-04-25T11:06:37;16.40;99.90
19152;DHT22;9708;53.114;9.388;2023-04-25T11:09:11;16.20;99.90
19152;DHT22;9708;53.114;9.388;2023-04-25T11:11:39;16.30;99.90
19152;DHT22;9708;53.114;9.388;2023-04-25T11:14:07;14.80;99.90
19152;DHT22;9708;53.114;9.388;2023-04-25T11:16:34;14.60;99.90
19152;DHT22;9708;53.114;9.388;2023-04-25T11:19:02;13.90;99.90
19152;DHT22;9708;53.114;9.388;2023-04-25T11:21:29;13.30;99.90
19152;DHT22;9708;53.114;9.388;2023-04-25T11:23:57;13.20;99.90
19152;DHT22;9708;53.114;9.388;2023-04-25T11:26:24;12.80;99.90
19152;DHT22;9708;53.114;9.388;2023-04-25T11:28:51;12.60;99.90
19152;DHT22;9708;53.114;9.388;2023-04-25T11:31:24;13.50;99.90
19152;DHT22;9708;53.114;9.388;2023-04-25T11:33:53;13.40;99.90
19152;DHT22;9708;53.114;9.388;2023-04-25T11:36:20;13.10;99.90
19152;DHT22;9708;53.114;9.388;2023-04-25T11:38:46;12.80;99.90
19152;DHT22;9708;53.114;9.388;2023-04-25T11:41:13;12.90;99.90
19152;DHT22;9708;53.114;9.388;2023-04-25T11:43:40;12.20;99.90
19152;DHT22;9708;53.114;9.388;2023-04-25T11:46:09;11.70;99.90
19152;DHT22;9708;53.114;9.388;2023-04-25T11:48:38;11.30;99.90
19152;DHT22;9708;53.114;9.388;2023-04-25T11:51:05;11.40;99.90
19152;DHT22;9708;53.114;9.388;2023-04-25T11:53:32;11.50;99.90
19152;DHT22;9708;53.114;9.388;2023-04-25T11:55:59;11.90;99.90
19152;DHT22;9708;53.114;9.388;2023-04-25T11:58:27;12.10;99.90
19152;DHT22;9708;53.114;9.388;2023-04-25T12:00:53;12.10;99.90
19152;DHT22;9708;53.114;9.388;2023-04-25T12:03:24;13.10;99.90
19152;DHT22;9708;53.114;9.388;2023-04-25T12:06:02;13.20;99.90
19152;DHT22;9708;53.114;9.388;2023-04-25T12:08:30;14.70;99.90
19152;DHT22;9708;53.114;9.388;2023-04-25T12:10:58;15.60;99.90
19152;DHT22;9708;53.114;9.388;2023-04-25T12:13:25;15.20;99.90
19152;DHT22;9708;53.114;9.388;2023-04-25T12:15:54;13.60;99.90
19152;DHT22;9708;53.114;9.388;2023-04-25T12:18:23;13.10;99.90
19152;DHT22;9708;53.114;9.388;2023-04-25T12:20:53;13.00;99.90
19152;DHT22;9708;53.114;9.388;2023-04-25T12:23:25;12.60;99.90
19152;DHT22;9708;53.114;9.388;2023-04-25T12:25:53;12.10;99.90
19152;DHT22;9708;53.114;9.388;2023-04-25T12:28:22;12.00;99.90
19152;DHT22;9708;53.114;9.388;2023-04-25T12:30:56;12.30;99.90
19152;DHT22;9708;53.114;9.388;2023-04-25T12:33:24;12.50;99.90
19152;DHT22;9708;53.114;9.388;2023-04-25T12:35:53;12.20;99.90
19152;DHT22;9708;53.114;9.388;2023-04-25T12:38:21;12.10;99.90
19152;DHT22;9708;53.114;9.388;2023-04-25T12:40:48;11.90;99.90
19152;DHT22;9708;53.114;9.388;2023-04-25T12:43:15;11.90;99.90
19152;DHT22;9708;53.114;9.388;2023-04-25T12:45:42;12.20;99.90
19152;DHT22;9708;53.114;9.388;2023-04-25T12:48:09;11.00;99.90
19152;DHT22;9708;53.114;9.388;2023-04-25T12:50:36;11.10;99.90
19152;DHT22;9708;53.114;9.388;2023-04-25T12:53:04;11.00;99.90
19152;DHT22;9708;53.114;9.388;2023-04-25T12:55:31;10.70;99.90
19152;DHT22;9708;53.114;9.388;2023-04-25T12:57:57;10.80;99.90
19152;DHT22;9708;53.114;9.388;2023-04-25T13:00:24;10.60;99.90
19152;DHT22;9708;53.114;9.388;2023-04-25T13:02:51;10.40;99.90
19152;DHT22;9708;53.114;9.388;2023-04-25T13:05:18;10.50;99.90
19152;DHT22;9708;53.114;9.388;2023-04-25T13:07:45;10.80;99.90
19152;DHT22;9708;53.114;9.388;2023-04-25T13:10:13;11.40;99.90
19152;DHT22;9708;53.114;9.388;2023-04-25T13:12:40;11.50;99.90
19152;DHT22;9708;53.114;9.388;2023-04-25T13:15:08;11.60;99.90
19152;DHT22;9708;53.114;9.388;2023-04-25T13:17:36;11.80;99.90
19152;DHT22;9708;53.114;9.388;2023-04-25T13:20:04;12.20;99.90
19152;DHT22;9708;53.114;9.388;2023-04-25T13:22:34;12.30;99.90
19152;DHT22;9708;53.114;9.388;2023-04-25T13:25:02;12.40;99.90
19152;DHT22;9708;53.114;9.388;2023-04-25T13:27:30;13.60;99.90
19152;DHT22;9708;53.114;9.388;2023-04-25T13:29:59;13.80;99.90
19152;DHT22;9708;53.114;9.388;2023-04-25T13:32:26;13.20;99.90
19152;DHT22;9708;53.114;9.388;2023-04-25T13:34:53;12.90;99.90
19152;DHT22;9708;53.114;9.388;2023-04-25T13:37:20;12.90;99.90
19152;DHT22;9708;53.114;9.388;2023-04-25T13:39:49;12.70;99.90
19152;DHT22;9708;53.114;9.388;2023-04-25T13:42:16;12.50;99.90
19152;DHT22;9708;53.114;9.388;2023-04-25T13:44:44;12.60;99.90
19152;DHT22;9708;53.114;9.388;2023-04-25T13:47:11;11.40;99.90
19152;DHT22;9708;53.114;9.388;2023-04-25T13:49:38;11.40;99.90
19152;DHT22;9708;53.114;9.388;2023-04-25T13:52:04;11.20;99.90
19152;DHT22;9708;53.114;9.388;2023-04-25T13:54:31;11.30;99.90
19152;DHT22;9708;53.114;9.388;2023-04-25T13:56:58;11.10;99.90
19152;DHT22;9708;53.114;9.388;2023-04-25T13:59:25;11.30;99.90
19152;DHT22;9708;53.114;9.388;2023-04-25T14:01:54;11.20;99.90
19152;DHT22;9708;53.114;9.388;2023-04-25T14:04:20;11.30;99.90
19152;DHT22;9708;53.114;9.388;2023-04-25T14:06:47;11.40;99.90
19152;DHT22;9708;53.114;9.388;2023-04-25T14:09:14;11.70;99.90
19152;DHT22;9708;53.114;9.388;2023-04-25T14:11:41;11.70;99.90
19152;DHT22;9708;53.114;9.388;2023-04-25T14:14:08;11.70;99.90
19152;DHT22;9708;53.114;9.388;2023-04-25T14:16:35;11.80;99.90
19152;DHT22;9708;53.114;9.388;2023-04-25T14:19:03;11.90;99.90
19152;DHT22;9708;53.114;9.388;2023-04-25T14:21:30;12.00;99.90
19152;DHT22;9708;53.114;9.388;2023-04-25T14:23:58;12.10;99.90
19152;DHT22;9708;53.114;9.388;2023-04-25T14:26:25;11.90;99.90
19152;DHT22;9708;53.114;9.388;2023-04-25T14:28:52;11.80;99.90
19152;DHT22;9708;53.114;9.388;2023-04-25T14:31:19;11.70;99.90
19152;DHT22;9708;53.114;9.388;2023-04-25T14:33:46;11.50;99.90
19152;DHT22;9708;53.114;9.388;2023-04-25T14:36:14;11.80;99.90
19152;DHT22;9708;53.114;9.388;2023-04-25T14:38:41;11.70;99.90
19152;DHT22;9708;53.114;9.388;2023-04-25T14:41:08;11.60;99.90
19152;DHT22;9708;53.114;9.388;2023-04-25T14:43:36;11.80;99.90
19152;DHT22;9708;53.114;9.388;2023-04-25T14:46:03;11.70;99.90
19152;DHT22;9708;53.114;9.388;2023-04-25T14:48:29;11.90;99.90
19152;DHT22;9708;53.114;9.388;2023-04-25T14:50:56;12.10;99.90
19152;DHT22;9708;53.114;9.388;2023-04-25T14:53:25;12.10;99.90
19152;DHT22;9708;53.114;9.388;2023-04-25T14:55:52;11.40;99.90
19152;DHT22;9708;53.114;9.388;2023-04-25T14:58:19;11.30;99.90
19152;DHT22;9708;53.114;9.388;2023-04-25T15:00:47;10.90;99.90
19152;DHT22;9708;53.114;9.388;2023-04-25T15:03:13;10.80;99.90
19152;DHT22;9708;53.114;9.388;2023-04-25T15:05:42;10.20;99.90
19152;DHT22;9708;53.114;9.388;2023-04-25T15:08:09;9.50;99.90
19152;DHT22;9708;53.114;9.388;2023-04-25T15:10:37;9.30;99.90
19152;DHT22;9708;53.114;9.388;2023-04-25T15:13:04;9.00;99.90
19152;DHT22;9708;53.114;9.388;2023-04-25T15:15:31;8.50;99.90
19152;DHT22;9708;53.114;9.388;2023-04-25T15:17:58;8.30;99.90
19152;DHT22;9708;53.114;9.388;2023-04-25T15:20:25;8.50;99.90
19152;DHT22;9708;53.114;9.388;2023-04-25T15:22:53;8.70;99.90
19152;DHT22;9708;53.114;9.388;2023-04-25T15:25:20;8.80;99.90
19152;DHT22;9708;53.114;9.388;2023-04-25T15:27:48;9.10;99.90
19152;DHT22;9708;53.114;9.388;2023-04-25T15:30:17;9.00;99.90
19152;DHT22;9708;53.114;9.388;2023-04-25T15:32:45;9.00;99.90
19152;DHT22;9708;53.114;9.388;2023-04-25T15:35:13;9.10;99.90
19152;DHT22;9708;53.114;9.388;2023-04-25T15:37:41;9.10;99.90
19152;DHT22;9708;53.114;9.388;2023-04-25T15:40:09;9.10;99.90
19152;DHT22;9708;53.114;9.388;2023-04-25T15:42:38;9.20;99.90
19152;DHT22;9708;53.114;9.388;2023-04-25T15:45:07;9.40;99.90
19152;DHT22;9708;53.114;9.388;2023-04-25T15:47:35;9.60;99.90
19152;DHT22;9708;53.114;9.388;2023-04-25T15:50:06;9.50;99.90
19152;DHT22;9708;53.114;9.388;2023-04-25T15:52:34;9.30;99.90
19152;DHT22;9708;53.114;9.388;2023-04-25T15:55:01;9.30;99.90
19152;DHT22;9708;53.114;9.388;2023-04-25T15:57:29;9.10;99.90